createdAt,value
2017-10-26T00:00:50.607Z,58.3
2017-10-26T00:01:52.425Z,58.3
2017-10-26T00:02:54.250Z,58.3
2017-10-26T00:03:55.361Z,58.4
2017-10-26T00:04:57.159Z,58.3
2017-10-26T00:05:58.271Z,58.3
2017-10-26T00:07:00.099Z,58.7
2017-10-26T00:08:02.266Z,58.3
2017-10-26T00:09:04.096Z,58.5
2017-10-26T00:10:05.890Z,58.4
2017-10-26T00:11:07.711Z,58.5
2017-10-26T00:12:09.164Z,58.3
2017-10-26T00:13:10.985Z,58.4
2017-10-26T00:14:13.150Z,58.4
2017-10-26T00:15:14.952Z,58.4
2017-10-26T00:16:16.772Z,58.5
2017-10-26T00:17:18.572Z,58.4
2017-10-26T00:18:20.395Z,58.4
2017-10-26T00:19:22.562Z,58.4
2017-10-26T00:20:24.727Z,58.4
2017-10-26T00:21:26.548Z,58.5
2017-10-26T00:22:28.345Z,58.3
2017-10-26T00:23:30.164Z,58.7
2017-10-26T00:24:31.617Z,58.4
2017-10-26T00:25:33.785Z,58.7
2017-10-26T00:26:35.983Z,58.5
2017-10-26T00:27:37.803Z,58.5
2017-10-26T00:28:39.283Z,58.4
2017-10-26T00:29:41.463Z,58.3
2017-10-26T00:30:43.624Z,58.3
2017-10-26T00:31:45.079Z,58.4
2017-10-26T00:32:46.554Z,58.4
2017-10-26T00:33:48.013Z,58.4
2017-10-26T00:34:49.831Z,58.6
2017-10-26T00:35:51.703Z,58.5
2017-10-26T00:36:53.155Z,58.5
2017-10-26T00:37:54.631Z,58.7
2017-10-26T00:38:56.795Z,58.4
2017-10-26T00:39:58.621Z,58.7
2017-10-26T00:41:00.781Z,58.7
2017-10-26T00:42:02.241Z,58.5
2017-10-26T00:43:04.070Z,58.5
2017-10-26T00:44:06.234Z,58.4
2017-10-26T00:45:08.062Z,58.4
2017-10-26T00:46:10.225Z,58.5
2017-10-26T00:47:11.702Z,58.6
2017-10-26T00:48:13.525Z,58.9
2017-10-26T00:49:15.336Z,58.7
2017-10-26T00:50:17.136Z,58.5
2017-10-26T00:51:18.941Z,58.8
2017-10-26T00:52:20.763Z,58.5
2017-10-26T00:53:22.215Z,58.7
2017-10-26T00:54:24.042Z,58.7
2017-10-26T00:55:26.232Z,58.7
2017-10-26T00:56:28.400Z,58.5
2017-10-26T00:57:30.222Z,58.6
2017-10-26T00:58:32.381Z,58.4
2017-10-26T00:59:34.547Z,58.3
2017-10-26T01:00:36.710Z,58.4
2017-10-26T01:01:38.878Z,58.4
2017-10-26T01:02:41.039Z,58.5
2017-10-26T01:03:42.514Z,58.3
2017-10-26T01:04:44.334Z,58.5
2017-10-26T01:05:46.154Z,58.5
2017-10-26T01:06:47.976Z,58.7
2017-10-26T01:07:49.796Z,58.7
2017-10-26T01:08:51.622Z,58.6
2017-10-26T01:09:53.444Z,58.4
2017-10-26T01:10:54.903Z,58.7
2017-10-26T01:11:56.361Z,58.4
2017-10-26T01:12:58.160Z,58.6
2017-10-26T01:13:59.985Z,58.4
2017-10-26T01:15:02.154Z,58.4
2017-10-26T01:16:03.953Z,58.6
2017-10-26T01:17:05.427Z,58.7
2017-10-26T01:18:06.884Z,58.6
2017-10-26T01:19:08.362Z,58.3
2017-10-26T01:20:10.180Z,58.8
2017-10-26T01:21:11.658Z,58.3
2017-10-26T01:22:13.491Z,58.3
2017-10-26T01:23:14.965Z,58.5
2017-10-26T01:24:16.762Z,58.7
2017-10-26T01:25:18.926Z,58.6
2017-10-26T01:26:21.103Z,58.7
2017-10-26T01:27:22.578Z,58.5
2017-10-26T01:28:24.741Z,58.7
2017-10-26T01:29:25.857Z,58.7
2017-10-26T01:30:27.312Z,58.4
2017-10-26T01:31:29.133Z,58.6
2017-10-26T01:32:31.302Z,58.4
2017-10-26T01:33:32.432Z,58.7
2017-10-26T01:34:34.598Z,58.6
2017-10-26T01:35:36.763Z,58.6
2017-10-26T01:36:38.563Z,58.3
2017-10-26T01:37:40.379Z,58.4
2017-10-26T01:38:41.862Z,58.6
2017-10-26T01:39:44.021Z,58.4
2017-10-26T01:40:46.187Z,58.6
2017-10-26T01:41:47.681Z,58.4
2017-10-26T01:42:49.523Z,58.7
2017-10-26T01:43:51.007Z,58.5
2017-10-26T01:44:52.833Z,58.4
2017-10-26T01:45:54.645Z,58.6
2017-10-26T01:46:56.125Z,58.4
2017-10-26T01:47:57.580Z,58.6
2017-10-26T01:48:59.038Z,58.7
2017-10-26T01:50:00.862Z,58.4
2017-10-26T01:51:02.318Z,58.7
2017-10-26T01:52:04.482Z,58.5
2017-10-26T01:53:06.303Z,58.6
2017-10-26T01:54:08.469Z,58.7
2017-10-26T01:55:09.925Z,58.6
2017-10-26T01:56:12.087Z,58.3
2017-10-26T01:57:13.565Z,58.6
2017-10-26T01:58:15.727Z,58.7
2017-10-26T01:59:17.548Z,58.4
2017-10-26T02:00:19.016Z,58.3
2017-10-26T02:01:20.834Z,58.3
2017-10-26T02:02:21.969Z,58.5
2017-10-26T02:03:23.446Z,58.8
2017-10-26T02:04:24.209Z,58.5
2017-10-26T02:05:26.035Z,58.7
2017-10-26T02:06:28.216Z,58.7
2017-10-26T02:07:30.020Z,58.6
2017-10-26T02:08:32.186Z,58.3
2017-10-26T02:09:33.986Z,58.4
2017-10-26T02:10:35.463Z,58.8
2017-10-26T02:11:37.285Z,58.3
2017-10-26T02:12:39.454Z,58.4
2017-10-26T02:13:41.272Z,58.4
2017-10-26T02:14:43.434Z,58.4
2017-10-26T02:15:44.893Z,58.3
2017-10-26T02:16:46.694Z,58.6
2017-10-26T02:17:48.856Z,58.6
2017-10-26T02:18:50.688Z,58.7
2017-10-26T02:19:52.488Z,58.9
2017-10-26T02:20:54.654Z,58.3
2017-10-26T02:21:56.819Z,58.9
2017-10-26T02:22:58.295Z,58.5
2017-10-26T02:24:00.091Z,58.7
2017-10-26T02:25:01.938Z,58.4
2017-10-26T02:26:03.747Z,58.5
2017-10-26T02:27:05.566Z,58.5
2017-10-26T02:28:07.375Z,58.4
2017-10-26T02:29:09.195Z,58.6
2017-10-26T02:30:10.691Z,58.3
2017-10-26T02:31:12.510Z,58.4
2017-10-26T02:32:14.331Z,58.4
2017-10-26T02:33:16.496Z,58.5
2017-10-26T02:34:18.003Z,58.5
2017-10-26T02:35:20.161Z,58.6
2017-10-26T02:36:21.271Z,58.5
2017-10-26T02:37:22.730Z,58.7
2017-10-26T02:38:24.892Z,58.6
2017-10-26T02:39:26.713Z,58.4
2017-10-26T02:40:28.522Z,58.3
2017-10-26T02:41:29.972Z,58.3
2017-10-26T02:42:31.442Z,58.5
2017-10-26T02:43:32.898Z,58.5
2017-10-26T02:44:34.378Z,58.4
2017-10-26T02:45:36.543Z,58.4
2017-10-26T02:46:38.709Z,58.3
2017-10-26T02:47:40.190Z,58.3
2017-10-26T02:48:42.356Z,58.4
2017-10-26T02:49:43.822Z,58.4
2017-10-26T02:50:45.298Z,58.4
2017-10-26T02:51:47.099Z,58.4
2017-10-26T02:52:49.262Z,58.3
2017-10-26T02:53:50.717Z,58.3
2017-10-26T02:54:52.882Z,58.3
2017-10-26T02:55:54.746Z,58.5
2017-10-26T02:56:56.927Z,58.6
2017-10-26T02:57:58.744Z,58.2
2017-10-26T02:59:00.566Z,58.1
2017-10-26T03:00:02.388Z,58.2
2017-10-26T03:01:03.844Z,58.6
2017-10-26T03:02:05.301Z,58.2
2017-10-26T03:03:06.766Z,58.4
2017-10-26T03:04:08.587Z,58.2
2017-10-26T03:05:10.741Z,58.4
2017-10-26T03:06:12.906Z,58.1
2017-10-26T03:07:14.703Z,58.3
2017-10-26T03:08:16.526Z,58.3
2017-10-26T03:09:18.715Z,58.2
2017-10-26T03:10:20.881Z,58.4
2017-10-26T03:11:22.729Z,58.2
2017-10-26T03:12:24.560Z,58.2
2017-10-26T03:13:26.372Z,58.2
2017-10-26T03:14:28.191Z,58.3
2017-10-26T03:15:30.012Z,58.2
2017-10-26T03:16:32.178Z,58.3
2017-10-26T03:17:33.655Z,58.4
2017-10-26T03:18:35.831Z,58.2
2017-10-26T03:19:37.305Z,58.2
2017-10-26T03:20:39.105Z,58.3
2017-10-26T03:21:40.956Z,58.3
2017-10-26T03:22:43.120Z,58.5
2017-10-26T03:23:44.915Z,58.3
2017-10-26T03:24:46.733Z,58.4
2017-10-26T03:25:48.214Z,58.5
2017-10-26T03:26:50.013Z,58.4
2017-10-26T03:27:51.833Z,58.2
2017-10-26T03:28:53.652Z,58.5
2017-10-26T03:29:55.487Z,58.5
2017-10-26T03:30:57.289Z,58.3
2017-10-26T03:31:59.106Z,58.2
2017-10-26T03:33:00.929Z,58.5
2017-10-26T03:34:03.094Z,58.4
2017-10-26T03:35:04.577Z,58.4
2017-10-26T03:36:06.396Z,58.2
2017-10-26T03:37:08.195Z,58.2
2017-10-26T03:38:09.673Z,58.2
2017-10-26T03:39:11.837Z,58.3
2017-10-26T03:40:13.309Z,58.2
2017-10-26T03:41:15.474Z,58.2
2017-10-26T03:42:17.638Z,58.1
2017-10-26T03:43:19.835Z,58.1
2017-10-26T03:44:20.943Z,58.4
2017-10-26T03:45:23.113Z,58.3
2017-10-26T03:46:24.593Z,58.3
2017-10-26T03:47:26.050Z,58.1
2017-10-26T03:48:27.869Z,58.1
2017-10-26T03:49:29.003Z,58.1
2017-10-26T03:50:30.807Z,58.1
2017-10-26T03:51:32.625Z,58
2017-10-26T03:52:34.443Z,58
2017-10-26T03:53:36.606Z,58
2017-10-26T03:54:38.768Z,58.1
2017-10-26T03:55:40.244Z,58
2017-10-26T03:56:41.725Z,57.9
2017-10-26T03:57:43.543Z,58
2017-10-26T03:58:45.020Z,58.3
2017-10-26T03:59:46.824Z,58.3
2017-10-26T04:00:48.297Z,58.2
2017-10-26T04:01:49.423Z,58
2017-10-26T04:02:50.897Z,58
2017-10-26T04:03:53.065Z,58.5
2017-10-26T04:04:54.537Z,58.1
2017-10-26T04:05:56.359Z,58.1
2017-10-26T04:06:58.524Z,58.2
2017-10-26T04:08:00.346Z,58.1
2017-10-26T04:09:02.144Z,58.3
2017-10-26T04:10:03.606Z,58.1
2017-10-26T04:11:05.065Z,58.2
2017-10-26T04:12:07.228Z,58.3
2017-10-26T04:13:09.047Z,58.1
2017-10-26T04:14:10.846Z,58.1
2017-10-26T04:15:13.011Z,58
2017-10-26T04:16:14.812Z,58
2017-10-26T04:17:16.293Z,58
2017-10-26T04:18:18.111Z,58
2017-10-26T04:19:19.937Z,58.2
2017-10-26T04:20:22.103Z,58.2
2017-10-26T04:21:23.578Z,58
2017-10-26T04:22:25.397Z,58.1
2017-10-26T04:23:26.504Z,58.1
2017-10-26T04:24:28.305Z,58.2
2017-10-26T04:25:29.782Z,58.1
2017-10-26T04:26:30.896Z,58.1
2017-10-26T04:27:33.062Z,58.1
2017-10-26T04:28:34.880Z,58.3
2017-10-26T04:29:36.680Z,58.2
2017-10-26T04:30:38.501Z,57.8
2017-10-26T04:31:40.320Z,57.8
2017-10-26T04:32:41.430Z,57.8
2017-10-26T04:33:43.600Z,57.8
2017-10-26T04:34:45.760Z,57.8
2017-10-26T04:35:47.922Z,57.8
2017-10-26T04:36:50.088Z,57.9
2017-10-26T04:37:51.884Z,57.9
2017-10-26T04:38:53.359Z,57.7
2017-10-26T04:39:55.181Z,57.9
2017-10-26T04:40:56.633Z,57.5
2017-10-26T04:41:58.800Z,57.8
2017-10-26T04:43:00.966Z,57.8
2017-10-26T04:44:02.763Z,57.6
2017-10-26T04:45:04.619Z,57.9
2017-10-26T04:46:06.782Z,57.7
2017-10-26T04:47:08.601Z,57.6
2017-10-26T04:48:10.434Z,57.6
2017-10-26T04:49:12.250Z,57.7
2017-10-26T04:50:14.069Z,57.8
2017-10-26T04:51:15.547Z,57.8
2017-10-26T04:52:17.003Z,57.6
2017-10-26T04:53:18.455Z,57.7
2017-10-26T04:54:20.257Z,57.8
2017-10-26T04:55:21.714Z,57.6
2017-10-26T04:56:22.825Z,57.5
2017-10-26T04:57:24.649Z,57.5
2017-10-26T04:58:25.754Z,57.7
2017-10-26T04:59:27.916Z,57.7
2017-10-26T05:00:30.080Z,57.6
2017-10-26T05:01:31.558Z,57.7
2017-10-26T05:02:33.357Z,57.7
2017-10-26T05:03:35.521Z,57.6
2017-10-26T05:04:37.341Z,57.7
2017-10-26T05:05:39.161Z,57.8
2017-10-26T05:06:40.987Z,57.6
2017-10-26T05:07:43.149Z,57.8
2017-10-26T05:08:44.975Z,57.7
2017-10-26T05:09:47.130Z,57.5
2017-10-26T05:10:49.137Z,57.7
2017-10-26T05:11:51.305Z,57.5
2017-10-26T05:12:52.791Z,57.5
2017-10-26T05:13:54.972Z,57.5
2017-10-26T05:14:56.790Z,57.5
2017-10-26T05:15:58.610Z,57.4
2017-10-26T05:17:00.793Z,57.5
2017-10-26T05:18:02.624Z,57.4
2017-10-26T05:19:04.841Z,57.5
2017-10-26T05:20:06.640Z,57.4
2017-10-26T05:21:08.120Z,57.5
2017-10-26T05:22:09.937Z,57.4
2017-10-26T05:23:11.755Z,57.5
2017-10-26T05:24:13.919Z,57.5
2017-10-26T05:25:16.083Z,57.4
2017-10-26T05:26:17.910Z,57.5
2017-10-26T05:27:19.734Z,57.5
2017-10-26T05:28:21.185Z,57.3
2017-10-26T05:29:23.353Z,57.5
2017-10-26T05:30:24.808Z,57.4
2017-10-26T05:31:26.627Z,57.5
2017-10-26T05:32:28.794Z,57.5
2017-10-26T05:33:30.272Z,57.5
2017-10-26T05:34:32.092Z,57.4
2017-10-26T05:35:34.257Z,57.4
2017-10-26T05:36:35.711Z,57.3
2017-10-26T05:37:37.539Z,57.4
2017-10-26T05:38:39.355Z,57.4
2017-10-26T05:39:40.833Z,57.3
2017-10-26T05:40:42.629Z,57.3
2017-10-26T05:41:44.795Z,57.3
2017-10-26T05:42:46.595Z,57.4
2017-10-26T05:43:47.728Z,57.4
2017-10-26T05:44:49.211Z,57.4
2017-10-26T05:45:51.031Z,57.3
2017-10-26T05:46:52.145Z,57.6
2017-10-26T05:47:53.972Z,57.4
2017-10-26T05:48:55.795Z,57.4
2017-10-26T05:49:57.248Z,57.4
2017-10-26T05:50:58.703Z,57.4
2017-10-26T05:52:00.155Z,57.3
2017-10-26T05:53:02.317Z,57.4
2017-10-26T05:54:03.890Z,57.3
2017-10-26T05:55:06.058Z,57.2
2017-10-26T05:56:07.882Z,57.4
2017-10-26T05:57:09.361Z,57.5
2017-10-26T05:58:11.200Z,57.3
2017-10-26T05:59:12.679Z,57.5
2017-10-26T06:00:14.502Z,57.4
2017-10-26T06:01:16.305Z,57.5
2017-10-26T06:02:17.424Z,57.5
2017-10-26T06:03:18.901Z,57.5
2017-10-26T06:04:20.034Z,57.5
2017-10-26T06:05:22.201Z,57.4
2017-10-26T06:06:24.020Z,57.6
2017-10-26T06:07:25.840Z,57.5
2017-10-26T06:08:27.300Z,57.5
2017-10-26T06:09:29.128Z,57.7
2017-10-26T06:10:30.624Z,57.5
2017-10-26T06:11:32.103Z,57.5
2017-10-26T06:12:34.340Z,57.5
2017-10-26T06:13:36.156Z,57.6
2017-10-26T06:14:37.635Z,57.5
2017-10-26T06:15:39.460Z,57.6
2017-10-26T06:16:40.917Z,57.6
2017-10-26T06:17:42.745Z,57.5
2017-10-26T06:18:44.563Z,57.7
2017-10-26T06:19:46.386Z,57.5
2017-10-26T06:20:48.212Z,57.6
2017-10-26T06:21:49.928Z,57.6
2017-10-26T06:22:51.730Z,57.6
2017-10-26T06:23:53.186Z,57.7
2017-10-26T06:24:55.011Z,57.5
2017-10-26T06:25:57.178Z,57.8
2017-10-26T06:26:59.055Z,57.7
2017-10-26T06:28:01.324Z,57.8
2017-10-26T06:29:03.482Z,57.7
2017-10-26T06:30:05.287Z,57.6
2017-10-26T06:31:06.744Z,57.7
2017-10-26T06:32:08.911Z,57.5
2017-10-26T06:33:11.078Z,57.6
2017-10-26T06:34:12.956Z,57.5
2017-10-26T06:35:14.788Z,57.8
2017-10-26T06:36:15.900Z,57.6
2017-10-26T06:37:17.732Z,57.5
2017-10-26T06:38:19.564Z,57.6
2017-10-26T06:39:20.673Z,57.8
2017-10-26T06:40:22.471Z,57.5
2017-10-26T06:41:24.294Z,57.8
2017-10-26T06:42:26.119Z,57.7
2017-10-26T06:43:27.598Z,57.7
2017-10-26T06:44:29.400Z,57.7
2017-10-26T06:45:31.567Z,57.7
2017-10-26T06:46:33.384Z,57.8
2017-10-26T06:47:35.549Z,57.5
2017-10-26T06:48:37.033Z,57.6
2017-10-26T06:49:38.510Z,57.6
2017-10-26T06:50:40.377Z,57.8
2017-10-26T06:51:42.188Z,57.7
2017-10-26T06:52:43.709Z,57.6
2017-10-26T06:53:45.872Z,58
2017-10-26T06:54:47.672Z,57.7
2017-10-26T06:55:49.495Z,57.7
2017-10-26T06:56:51.659Z,57.7
2017-10-26T06:57:53.829Z,57.7
2017-10-26T06:58:56.046Z,57.6
2017-10-26T06:59:57.570Z,57.7
2017-10-26T07:00:59.756Z,57.7
2017-10-26T07:02:00.892Z,57.8
2017-10-26T07:03:02.371Z,57.6
2017-10-26T07:04:04.169Z,57.7
2017-10-26T07:05:05.972Z,57.8
2017-10-26T07:06:08.146Z,57.8
2017-10-26T07:07:08.904Z,57.8
2017-10-26T07:08:11.073Z,57.7
2017-10-26T07:09:12.902Z,57.7
2017-10-26T07:10:15.070Z,57.7
2017-10-26T07:11:17.232Z,57.6
2017-10-26T07:12:18.697Z,57.7
2017-10-26T07:13:20.147Z,57.7
2017-10-26T07:14:21.626Z,57.5
2017-10-26T07:15:23.446Z,57.6
2017-10-26T07:16:25.614Z,57.5
2017-10-26T07:17:27.417Z,57.7
2017-10-26T07:18:29.264Z,57.6
2017-10-26T07:19:31.084Z,57.6
2017-10-26T07:20:33.257Z,57.8
2017-10-26T07:21:35.059Z,57.6
2017-10-26T07:22:37.224Z,57.9
2017-10-26T07:23:39.022Z,57.7
2017-10-26T07:24:41.187Z,57.7
2017-10-26T07:25:43.353Z,57.7
2017-10-26T07:26:44.837Z,57.8
2017-10-26T07:27:46.995Z,57.6
2017-10-26T07:28:48.108Z,57.6
2017-10-26T07:29:49.931Z,57.6
2017-10-26T07:30:51.760Z,57.6
2017-10-26T07:31:53.221Z,57.8
2017-10-26T07:32:55.059Z,57.6
2017-10-26T07:33:57.226Z,57.7
2017-10-26T07:34:59.389Z,57.7
2017-10-26T07:36:01.214Z,57.7
2017-10-26T07:37:02.340Z,57.8
2017-10-26T07:38:03.457Z,57.7
2017-10-26T07:39:05.254Z,57.6
2017-10-26T07:40:07.055Z,57.5
2017-10-26T07:41:08.510Z,57.5
2017-10-26T07:42:10.343Z,57.5
2017-10-26T07:43:11.831Z,57.4
2017-10-26T07:44:13.626Z,57.5
2017-10-26T07:45:15.447Z,57.7
2017-10-26T07:46:16.562Z,57.5
2017-10-26T07:47:18.022Z,57.5
2017-10-26T07:48:19.134Z,57.6
2017-10-26T07:49:20.250Z,57.5
2017-10-26T07:50:22.070Z,57.6
2017-10-26T07:51:23.873Z,57.5
2017-10-26T07:52:25.671Z,57.5
2017-10-26T07:53:27.169Z,57.6
2017-10-26T07:54:28.645Z,57.6
2017-10-26T07:55:30.877Z,57.5
2017-10-26T07:56:32.336Z,57.6
2017-10-26T07:57:34.503Z,57.6
2017-10-26T07:58:36.306Z,57.7
2017-10-26T07:59:38.125Z,57.6
2017-10-26T08:00:39.643Z,57.8
2017-10-26T08:01:41.509Z,57.8
2017-10-26T08:02:43.370Z,57.6
2017-10-26T08:03:44.830Z,57.8
2017-10-26T08:04:46.766Z,57.6
2017-10-26T08:05:48.222Z,57.5
2017-10-26T08:06:50.030Z,57.5
2017-10-26T08:07:51.850Z,57.7
2017-10-26T08:08:53.312Z,57.6
2017-10-26T08:09:55.142Z,57.6
2017-10-26T08:10:57.304Z,57.5
2017-10-26T08:11:58.779Z,57.6
2017-10-26T08:13:00.595Z,57.7
2017-10-26T08:14:02.420Z,57.6
2017-10-26T08:15:04.246Z,57.5
2017-10-26T08:16:05.711Z,57.5
2017-10-26T08:17:07.902Z,57.5
2017-10-26T08:18:09.730Z,57.6
2017-10-26T08:19:11.200Z,57.4
2017-10-26T08:20:13.534Z,57.6
2017-10-26T08:21:16.126Z,57.5
2017-10-26T08:22:17.585Z,57.5
2017-10-26T08:23:19.752Z,57.4
2017-10-26T08:24:21.578Z,57.5
2017-10-26T08:25:23.089Z,57.7
2017-10-26T08:26:24.567Z,57.2
2017-10-26T08:27:26.733Z,57.5
2017-10-26T08:28:27.869Z,57.7
2017-10-26T08:29:29.326Z,57.3
2017-10-26T08:30:31.132Z,57.4
2017-10-26T08:31:33.297Z,57.3
2017-10-26T08:32:35.455Z,57.4
2017-10-26T08:33:37.273Z,57.3
2017-10-26T08:34:39.104Z,57.3
2017-10-26T08:35:41.302Z,57.3
2017-10-26T08:36:43.501Z,57.4
2017-10-26T08:37:45.322Z,57.4
2017-10-26T08:38:47.146Z,57.4
2017-10-26T08:39:49.314Z,57.4
2017-10-26T08:40:50.777Z,57.3
2017-10-26T08:41:52.944Z,57.4
2017-10-26T08:42:54.061Z,57.4
2017-10-26T08:43:55.537Z,57.5
2017-10-26T08:44:57.025Z,57.3
2017-10-26T08:45:58.562Z,57.4
2017-10-26T08:47:00.730Z,57.4
2017-10-26T08:48:02.895Z,57.4
2017-10-26T08:49:05.069Z,57.2
2017-10-26T08:50:06.896Z,57.4
2017-10-26T08:51:08.401Z,57.2
2017-10-26T08:52:10.222Z,57.6
2017-10-26T08:53:12.028Z,57.3
2017-10-26T08:54:13.827Z,57.1
2017-10-26T08:55:15.650Z,57.3
2017-10-26T08:56:17.474Z,57.1
2017-10-26T08:57:18.953Z,57.1
2017-10-26T08:58:21.127Z,57.1
2017-10-26T08:59:23.295Z,57.1
2017-10-26T09:00:24.777Z,57.1
2017-10-26T09:01:26.941Z,57.4
2017-10-26T09:02:28.742Z,57.2
2017-10-26T09:03:30.562Z,57.1
2017-10-26T09:04:32.389Z,57.1
2017-10-26T09:05:34.551Z,56.9
2017-10-26T09:06:36.007Z,56.9
2017-10-26T09:07:37.830Z,57
2017-10-26T09:08:39.997Z,57
2017-10-26T09:09:41.815Z,57.2
2017-10-26T09:10:43.637Z,57
2017-10-26T09:11:45.111Z,57
2017-10-26T09:12:46.934Z,56.9
2017-10-26T09:13:48.759Z,56.9
2017-10-26T09:14:50.240Z,56.9
2017-10-26T09:15:52.057Z,56.8
2017-10-26T09:16:53.879Z,56.8
2017-10-26T09:17:56.053Z,56.9
2017-10-26T09:18:57.875Z,56.7
2017-10-26T09:19:59.698Z,56.8
2017-10-26T09:21:01.521Z,57
2017-10-26T09:22:03.694Z,57
2017-10-26T09:23:05.533Z,56.8
2017-10-26T09:24:06.995Z,56.8
2017-10-26T09:25:08.817Z,57
2017-10-26T09:26:10.650Z,56.9
2017-10-26T09:27:12.472Z,56.8
2017-10-26T09:28:14.299Z,56.8
2017-10-26T09:29:15.754Z,56.8
2017-10-26T09:30:17.235Z,56.8
2017-10-26T09:31:19.058Z,57.2
2017-10-26T09:32:20.172Z,56.9
2017-10-26T09:33:22.336Z,56.9
2017-10-26T09:34:24.156Z,56.9
2017-10-26T09:35:26.330Z,57.1
2017-10-26T09:36:28.129Z,57.2
2017-10-26T09:37:29.958Z,56.8
2017-10-26T09:38:32.127Z,57
2017-10-26T09:39:33.944Z,56.9
2017-10-26T09:40:35.747Z,57
2017-10-26T09:41:37.568Z,57.5
2017-10-26T09:42:39.389Z,56.9
2017-10-26T09:43:41.190Z,57
2017-10-26T09:44:42.331Z,56.9
2017-10-26T09:45:44.131Z,57
2017-10-26T09:46:45.971Z,56.9
2017-10-26T09:47:47.178Z,56.9
2017-10-26T09:48:49.348Z,57
2017-10-26T09:49:51.182Z,57
2017-10-26T09:50:52.320Z,56.9
2017-10-26T09:51:54.140Z,56.9
2017-10-26T09:52:55.962Z,57.4
2017-10-26T09:53:57.448Z,57.2
2017-10-26T09:54:59.270Z,57.2
2017-10-26T09:56:01.443Z,57.1
2017-10-26T09:57:03.272Z,57.2
2017-10-26T09:58:05.442Z,57
2017-10-26T09:59:06.921Z,57
2017-10-26T10:00:08.749Z,57.1
2017-10-26T10:01:10.570Z,57.1
2017-10-26T10:02:12.028Z,57.1
2017-10-26T10:03:14.189Z,57.1
2017-10-26T10:04:15.649Z,57
2017-10-26T10:05:17.812Z,57
2017-10-26T10:06:19.615Z,57.2
2017-10-26T10:07:21.435Z,57
2017-10-26T10:08:22.892Z,57.1
2017-10-26T10:09:25.064Z,57.1
2017-10-26T10:10:26.518Z,57.1
2017-10-26T10:11:28.345Z,57.1
2017-10-26T10:12:29.481Z,56.9
2017-10-26T10:13:31.659Z,57.2
2017-10-26T10:14:33.477Z,57
2017-10-26T10:15:35.302Z,56.9
2017-10-26T10:16:37.105Z,57
2017-10-26T10:17:39.269Z,57.4
2017-10-26T10:18:41.094Z,56.9
2017-10-26T10:19:42.918Z,57
2017-10-26T10:20:44.388Z,57.1
2017-10-26T10:21:46.210Z,57
2017-10-26T10:22:48.034Z,57.1
2017-10-26T10:23:49.519Z,57
2017-10-26T10:24:50.994Z,57.1
2017-10-26T10:25:52.831Z,56.9
2017-10-26T10:26:54.661Z,57
2017-10-26T10:27:56.498Z,56.9
2017-10-26T10:28:58.676Z,56.9
2017-10-26T10:30:00.511Z,56.8
2017-10-26T10:31:01.985Z,56.9
2017-10-26T10:32:04.150Z,56.9
2017-10-26T10:33:05.607Z,56.9
2017-10-26T10:34:07.432Z,56.9
2017-10-26T10:35:09.605Z,57
2017-10-26T10:36:11.082Z,56.9
2017-10-26T10:37:12.607Z,57.2
2017-10-26T10:38:14.809Z,57.2
2017-10-26T10:39:16.264Z,57.3
2017-10-26T10:40:17.761Z,56.9
2017-10-26T10:41:19.564Z,56.9
2017-10-26T10:42:21.382Z,57.2
2017-10-26T10:43:23.552Z,56.9
2017-10-26T10:44:25.373Z,57.1
2017-10-26T10:45:26.827Z,56.9
2017-10-26T10:46:28.659Z,56.9
2017-10-26T10:47:30.107Z,57
2017-10-26T10:48:31.929Z,56.9
2017-10-26T10:49:34.098Z,57
2017-10-26T10:50:36.275Z,56.7
2017-10-26T10:51:37.714Z,57
2017-10-26T10:52:39.883Z,56.7
2017-10-26T10:53:40.993Z,57
2017-10-26T10:54:42.793Z,56.8
2017-10-26T10:55:44.960Z,57.1
2017-10-26T10:56:46.786Z,57
2017-10-26T10:57:48.246Z,56.9
2017-10-26T10:58:50.411Z,56.8
2017-10-26T10:59:52.578Z,56.8
2017-10-26T11:00:54.056Z,56.7
2017-10-26T11:01:56.225Z,56.9
2017-10-26T11:02:58.026Z,56.8
2017-10-26T11:04:00.215Z,57.1
2017-10-26T11:05:02.016Z,57
2017-10-26T11:06:03.840Z,56.7
2017-10-26T11:07:05.318Z,57
2017-10-26T11:08:06.774Z,56.7
2017-10-26T11:09:07.551Z,56.6
2017-10-26T11:10:09.733Z,56.8
2017-10-26T11:11:11.213Z,56.9
2017-10-26T11:12:13.036Z,56.8
2017-10-26T11:13:14.862Z,56.8
2017-10-26T11:14:17.025Z,56.7
2017-10-26T11:15:19.193Z,56.6
2017-10-26T11:16:21.015Z,56.7
2017-10-26T11:17:22.130Z,57.1
2017-10-26T11:18:24.349Z,56.7
2017-10-26T11:19:26.169Z,56.7
2017-10-26T11:20:28.004Z,56.8
2017-10-26T11:21:29.807Z,56.8
2017-10-26T11:22:31.627Z,56.7
2017-10-26T11:23:33.094Z,56.7
2017-10-26T11:24:34.947Z,56.6
2017-10-26T11:25:36.397Z,56.8
2017-10-26T11:26:38.760Z,56.7
2017-10-26T11:27:40.996Z,56.8
2017-10-26T11:28:43.209Z,56.8
2017-10-26T11:29:45.378Z,56.7
2017-10-26T11:30:47.203Z,56.8
2017-10-26T11:31:49.373Z,56.7
2017-10-26T11:32:51.203Z,56.8
2017-10-26T11:33:53.038Z,56.7
2017-10-26T11:34:55.203Z,56.7
2017-10-26T11:35:57.370Z,57
2017-10-26T11:36:59.537Z,56.8
2017-10-26T11:38:01.365Z,56.6
2017-10-26T11:39:02.487Z,56.7
2017-10-26T11:40:04.667Z,56.7
2017-10-26T11:41:06.839Z,56.5
2017-10-26T11:42:08.662Z,56.5
2017-10-26T11:43:10.482Z,56.7
2017-10-26T11:44:11.613Z,56.6
2017-10-26T11:45:12.711Z,56.6
2017-10-26T11:46:14.562Z,56.6
2017-10-26T11:47:15.673Z,56.7
2017-10-26T11:48:17.497Z,56.6
2017-10-26T11:49:19.664Z,56.5
2017-10-26T11:50:21.462Z,56.7
2017-10-26T11:51:22.581Z,56.7
2017-10-26T11:52:24.395Z,56.9
2017-10-26T11:53:25.869Z,56.7
2017-10-26T11:54:27.699Z,56.8
2017-10-26T11:55:28.806Z,56.7
2017-10-26T11:56:30.268Z,56.7
2017-10-26T11:57:32.098Z,56.8
2017-10-26T11:58:34.262Z,56.8
2017-10-26T11:59:35.373Z,56.8
2017-10-26T12:00:36.494Z,56.8
2017-10-26T12:01:37.956Z,56.8
2017-10-26T12:02:39.437Z,56.8
2017-10-26T12:03:41.270Z,56.8
2017-10-26T12:04:43.441Z,56.8
2017-10-26T12:05:44.922Z,56.8
2017-10-26T12:06:46.742Z,56.8
2017-10-26T12:07:48.220Z,56.8
2017-10-26T12:08:50.385Z,56.7
2017-10-26T12:09:51.850Z,56.7
2017-10-26T12:10:53.305Z,56.7
2017-10-26T12:11:55.469Z,56.7
2017-10-26T12:12:57.290Z,56.8
2017-10-26T12:13:59.455Z,57
2017-10-26T12:15:01.620Z,56.7
2017-10-26T12:16:03.789Z,57
2017-10-26T12:17:04.926Z,56.8
2017-10-26T12:18:06.756Z,56.8
2017-10-26T12:19:08.578Z,56.8
2017-10-26T12:20:10.056Z,56.7
2017-10-26T12:21:12.220Z,57.1
2017-10-26T12:22:13.703Z,56.8
2017-10-26T12:23:15.877Z,56.9
2017-10-26T12:24:17.332Z,57
2017-10-26T12:25:18.448Z,56.9
2017-10-26T12:26:20.270Z,57
2017-10-26T12:27:22.074Z,57.1
2017-10-26T12:28:24.270Z,57.3
2017-10-26T12:29:26.207Z,57
2017-10-26T12:30:28.062Z,57
2017-10-26T12:31:29.543Z,57
2017-10-26T12:32:31.712Z,57
2017-10-26T12:33:33.537Z,57.1
2017-10-26T12:34:35.469Z,57
2017-10-26T12:35:37.040Z,57
2017-10-26T12:36:38.857Z,57
2017-10-26T12:37:39.976Z,57
2017-10-26T12:38:42.144Z,56.9
2017-10-26T12:39:43.980Z,57
2017-10-26T12:40:45.100Z,57
2017-10-26T12:41:46.927Z,57
2017-10-26T12:42:49.098Z,56.9
2017-10-26T12:43:50.930Z,56.9
2017-10-26T12:44:52.398Z,57
2017-10-26T12:45:53.865Z,57.3
2017-10-26T12:46:55.668Z,57.3
2017-10-26T12:47:57.122Z,57
2017-10-26T12:48:58.584Z,57
2017-10-26T12:50:00.755Z,57
2017-10-26T12:51:01.887Z,57
2017-10-26T12:52:04.057Z,57
2017-10-26T12:53:05.174Z,57.1
2017-10-26T12:54:06.311Z,57
2017-10-26T12:55:07.772Z,57.1
2017-10-26T12:56:09.597Z,57.1
2017-10-26T12:57:11.074Z,57
2017-10-26T12:58:12.963Z,57.1
2017-10-26T12:59:14.100Z,57
2017-10-26T13:00:16.026Z,57
2017-10-26T13:01:17.827Z,57.1
2017-10-26T13:02:19.996Z,57
2017-10-26T13:03:21.479Z,57
2017-10-26T13:04:23.304Z,57.1
2017-10-26T13:05:25.131Z,57
2017-10-26T13:06:26.600Z,57
2017-10-26T13:07:28.060Z,57
2017-10-26T13:08:29.865Z,57
2017-10-26T13:09:31.345Z,57
2017-10-26T13:10:32.831Z,57
2017-10-26T13:11:35.000Z,57
2017-10-26T13:12:36.828Z,57.4
2017-10-26T13:13:38.294Z,57
2017-10-26T13:14:40.118Z,57
2017-10-26T13:15:41.596Z,57
2017-10-26T13:16:43.060Z,57
2017-10-26T13:17:44.887Z,57
2017-10-26T13:18:46.709Z,57
2017-10-26T13:19:48.510Z,57
2017-10-26T13:20:50.307Z,57
2017-10-26T13:21:51.790Z,57.1
2017-10-26T13:22:53.617Z,57
2017-10-26T13:23:54.731Z,57.3
2017-10-26T13:24:56.900Z,57.1
2017-10-26T13:25:59.070Z,57
2017-10-26T13:27:00.552Z,57
2017-10-26T13:28:02.720Z,57
2017-10-26T13:29:04.889Z,57
2017-10-26T13:30:07.058Z,57
2017-10-26T13:31:08.520Z,57
2017-10-26T13:32:10.686Z,57
2017-10-26T13:33:12.857Z,57.3
2017-10-26T13:34:15.027Z,57
2017-10-26T13:35:16.831Z,57.4
2017-10-26T13:36:18.656Z,57
2017-10-26T13:37:20.826Z,57.3
2017-10-26T13:38:22.654Z,57
2017-10-26T13:39:24.474Z,57
2017-10-26T13:40:26.646Z,57.3
2017-10-26T13:41:28.109Z,57
2017-10-26T13:42:29.586Z,57
2017-10-26T13:43:31.064Z,57
2017-10-26T13:44:32.547Z,56.9
2017-10-26T13:45:34.372Z,57.4
2017-10-26T13:46:36.172Z,57
2017-10-26T13:47:37.995Z,57
2017-10-26T13:48:39.822Z,57
2017-10-26T13:49:41.280Z,57